sensor_id;sensor_type;location;lat;lon;timestamp;temperature;humidity
20337;DHT22;10326;53.660;10.200;2024-02-23T00:00:16;13.10;93.20
20337;DHT22;10326;53.660;10.200;2024-02-23T00:02:43;13.10;93.30
20337;DHT22;10326;53.660;10.200;2024-02-23T00:05:10;13.00;93.20
20337;DHT22;10326;53.660;10.200;2024-02-23T00:08:02;13.00;93.20
20337;DHT22;10326;53.660;10.200;2024-02-23T00:10:30;13.00;93.20
20337;DHT22;10326;53.660;10.200;2024-02-23T00:12:59;12.90;93.10
20337;DHT22;10326;53.660;10.200;2024-02-23T00:15:26;12.90;93.00
20337;DHT22;10326;53.660;10.200;2024-02-23T00:17:53;12.80;93.10
20337;DHT22;10326;53.660;10.200;2024-02-23T00:20:20;12.80;93.00
20337;DHT22;10326;53.660;10.200;2024-02-23T00:22:48;12.80;92.90
20337;DHT22;10326;53.660;10.200;2024-02-23T00:25:15;12.70;92.90
20337;DHT22;10326;53.660;10.200;2024-02-23T00:27:42;12.70;92.90
20337;DHT22;10326;53.660;10.200;2024-02-23T00:30:11;12.70;92.90
20337;DHT22;10326;53.660;10.200;2024-02-23T00:32:39;12.60;92.90
20337;DHT22;10326;53.660;10.200;2024-02-23T00:35:06;12.60;92.90
20337;DHT22;10326;53.660;10.200;2024-02-23T00:37:33;12.60;92.80
20337;DHT22;10326;53.660;10.200;2024-02-23T00:40:01;12.60;92.80
20337;DHT22;10326;53.660;10.200;2024-02-23T00:42:29;12.60;92.70
20337;DHT22;10326;53.660;10.200;2024-02-23T00:44:56;12.50;92.70
20337;DHT22;10326;53.660;10.200;2024-02-23T00:47:24;12.50;92.60
20337;DHT22;10326;53.660;10.200;2024-02-23T00:49:53;12.50;92.30
20337;DHT22;10326;53.660;10.200;2024-02-23T00:52:20;12.40;92.40
20337;DHT22;10326;53.660;10.200;2024-02-23T00:54:47;12.40;92.30
20337;DHT22;10326;53.660;10.200;2024-02-23T00:57:14;12.40;91.90
20337;DHT22;10326;53.660;10.200;2024-02-23T00:59:41;12.40;92.10
20337;DHT22;10326;53.660;10.200;2024-02-23T01:02:08;12.30;92.10
20337;DHT22;10326;53.660;10.200;2024-02-23T01:04:36;12.30;92.20
20337;DHT22;10326;53.660;10.200;2024-02-23T01:07:03;12.20;92.20
20337;DHT22;10326;53.660;10.200;2024-02-23T01:09:30;12.10;92.10
20337;DHT22;10326;53.660;10.200;2024-02-23T01:11:57;11.90;92.20
20337;DHT22;10326;53.660;10.200;2024-02-23T01:14:24;11.70;92.30
20337;DHT22;10326;53.660;10.200;2024-02-23T01:16:50;11.60;92.50
20337;DHT22;10326;53.660;10.200;2024-02-23T01:19:17;11.40;92.50
20337;DHT22;10326;53.660;10.200;2024-02-23T01:21:46;11.30;92.60
20337;DHT22;10326;53.660;10.200;2024-02-23T01:24:12;11.20;92.70
20337;DHT22;10326;53.660;10.200;2024-02-23T01:26:39;11.10;92.80
20337;DHT22;10326;53.660;10.200;2024-02-23T01:29:06;11.00;92.80
20337;DHT22;10326;53.660;10.200;2024-02-23T01:31:33;10.90;92.80
20337;DHT22;10326;53.660;10.200;2024-02-23T01:34:00;10.80;92.90
20337;DHT22;10326;53.660;10.200;2024-02-23T01:36:27;10.70;93.00
20337;DHT22;10326;53.660;10.200;2024-02-23T01:38:55;10.70;93.00
20337;DHT22;10326;53.660;10.200;2024-02-23T01:41:22;10.70;93.10
20337;DHT22;10326;53.660;10.200;2024-02-23T01:43:49;10.60;93.10
20337;DHT22;10326;53.660;10.200;2024-02-23T01:46:17;10.50;93.00
20337;DHT22;10326;53.660;10.200;2024-02-23T01:48:45;10.50;93.10
20337;DHT22;10326;53.660;10.200;2024-02-23T01:51:12;10.50;93.10
20337;DHT22;10326;53.660;10.200;2024-02-23T01:53:39;10.50;93.10
20337;DHT22;10326;53.660;10.200;2024-02-23T01:56:08;10.40;93.20
20337;DHT22;10326;53.660;10.200;2024-02-23T01:58:39;10.40;93.20
20337;DHT22;10326;53.660;10.200;2024-02-23T02:01:07;10.40;93.20
20337;DHT22;10326;53.660;10.200;2024-02-23T02:03:33;10.40;93.20
20337;DHT22;10326;53.660;10.200;2024-02-23T02:06:01;10.40;93.20
20337;DHT22;10326;53.660;10.200;2024-02-23T02:08:28;10.40;93.20
20337;DHT22;10326;53.660;10.200;2024-02-23T02:10:55;10.30;93.10
20337;DHT22;10326;53.660;10.200;2024-02-23T02:13:23;10.30;93.10
20337;DHT22;10326;53.660;10.200;2024-02-23T02:15:50;10.30;93.10
20337;DHT22;10326;53.660;10.200;2024-02-23T02:18:17;10.30;92.90
20337;DHT22;10326;53.660;10.200;2024-02-23T02:20:51;10.20;93.00
20337;DHT22;10326;53.660;10.200;2024-02-23T02:23:18;10.20;92.90
20337;DHT22;10326;53.660;10.200;2024-02-23T02:25:51;10.20;92.90
20337;DHT22;10326;53.660;10.200;2024-02-23T02:28:19;10.20;93.00
20337;DHT22;10326;53.660;10.200;2024-02-23T02:30:47;10.10;92.90
20337;DHT22;10326;53.660;10.200;2024-02-23T02:33:14;10.10;93.00
20337;DHT22;10326;53.660;10.200;2024-02-23T02:35:41;10.00;92.90
20337;DHT22;10326;53.660;10.200;2024-02-23T02:38:33;10.00;92.90
20337;DHT22;10326;53.660;10.200;2024-02-23T02:41:01;10.00;92.90
20337;DHT22;10326;53.660;10.200;2024-02-23T02:43:28;10.00;92.90
20337;DHT22;10326;53.660;10.200;2024-02-23T02:45:57;9.90;92.90
20337;DHT22;10326;53.660;10.200;2024-02-23T02:48:25;9.90;92.90
20337;DHT22;10326;53.660;10.200;2024-02-23T02:50:51;9.80;92.90
20337;DHT22;10326;53.660;10.200;2024-02-23T02:53:18;9.80;93.00
20337;DHT22;10326;53.660;10.200;2024-02-23T02:55:45;9.70;92.90
20337;DHT22;10326;53.660;10.200;2024-02-23T02:58:13;9.60;92.90
20337;DHT22;10326;53.660;10.200;2024-02-23T03:00:40;9.60;92.90
20337;DHT22;10326;53.660;10.200;2024-02-23T03:03:09;9.60;92.90
20337;DHT22;10326;53.660;10.200;2024-02-23T03:05:36;9.50;92.80
20337;DHT22;10326;53.660;10.200;2024-02-23T03:08:03;9.50;92.90
20337;DHT22;10326;53.660;10.200;2024-02-23T03:10:30;9.40;92.80
20337;DHT22;10326;53.660;10.200;2024-02-23T03:12:57;9.30;92.90
20337;DHT22;10326;53.660;10.200;2024-02-23T03:15:24;9.30;93.00
20337;DHT22;10326;53.660;10.200;2024-02-23T03:17:51;9.30;93.00
20337;DHT22;10326;53.660;10.200;2024-02-23T03:20:21;9.30;93.00
20337;DHT22;10326;53.660;10.200;2024-02-23T03:22:48;9.20;93.00
20337;DHT22;10326;53.660;10.200;2024-02-23T03:25:15;9.20;93.00
20337;DHT22;10326;53.660;10.200;2024-02-23T03:27:42;9.20;93.00
20337;DHT22;10326;53.660;10.200;2024-02-23T03:30:10;9.20;93.00
20337;DHT22;10326;53.660;10.200;2024-02-23T03:32:37;9.20;93.10
20337;DHT22;10326;53.660;10.200;2024-02-23T03:35:05;9.20;93.00
20337;DHT22;10326;53.660;10.200;2024-02-23T03:37:35;9.20;93.00
20337;DHT22;10326;53.660;10.200;2024-02-23T03:40:02;9.20;93.00
20337;DHT22;10326;53.660;10.200;2024-02-23T03:42:30;9.20;93.00
20337;DHT22;10326;53.660;10.200;2024-02-23T03:44:57;9.20;93.00
20337;DHT22;10326;53.660;10.200;2024-02-23T03:47:24;9.20;93.00
20337;DHT22;10326;53.660;10.200;2024-02-23T03:49:51;9.20;92.90
20337;DHT22;10326;53.660;10.200;2024-02-23T03:52:17;9.20;92.80
20337;DHT22;10326;53.660;10.200;2024-02-23T03:54:46;9.10;92.80
20337;DHT22;10326;53.660;10.200;2024-02-23T03:57:13;9.20;92.70
20337;DHT22;10326;53.660;10.200;2024-02-23T03:59:51;9.10;92.70
20337;DHT22;10326;53.660;10.200;2024-02-23T04:02:18;9.10;92.70
20337;DHT22;10326;53.660;10.200;2024-02-23T04:04:46;9.10;92.80
20337;DHT22;10326;53.660;10.200;2024-02-23T04:07:13;9.10;92.80
20337;DHT22;10326;53.660;10.200;2024-02-23T04:09:39;9.10;92.80
20337;DHT22;10326;53.660;10.200;2024-02-23T04:12:08;9.00;92.70
20337;DHT22;10326;53.660;10.200;2024-02-23T04:14:35;9.10;92.70
20337;DHT22;10326;53.660;10.200;2024-02-23T04:17:02;9.00;92.70
20337;DHT22;10326;53.660;10.200;2024-02-23T04:19:29;9.00;92.70
20337;DHT22;10326;53.660;10.200;2024-02-23T04:21:56;9.00;92.60
20337;DHT22;10326;53.660;10.200;2024-02-23T04:24:23;9.00;92.60
20337;DHT22;10326;53.660;10.200;2024-02-23T04:26:50;9.00;92.60
20337;DHT22;10326;53.660;10.200;2024-02-23T04:29:18;9.00;92.50
20337;DHT22;10326;53.660;10.200;2024-02-23T04:31:45;8.90;92.50
20337;DHT22;10326;53.660;10.200;2024-02-23T04:34:12;8.90;92.60
20337;DHT22;10326;53.660;10.200;2024-02-23T04:36:39;8.90;92.60
20337;DHT22;10326;53.660;10.200;2024-02-23T04:39:05;8.90;92.60
20337;DHT22;10326;53.660;10.200;2024-02-23T04:41:33;8.90;92.60
20337;DHT22;10326;53.660;10.200;2024-02-23T04:43:59;8.90;92.60
20337;DHT22;10326;53.660;10.200;2024-02-23T04:46:28;8.90;92.60
20337;DHT22;10326;53.660;10.200;2024-02-23T04:48:55;8.90;92.60
20337;DHT22;10326;53.660;10.200;2024-02-23T04:51:22;8.90;92.60
20337;DHT22;10326;53.660;10.200;2024-02-23T04:53:50;8.90;92.60
20337;DHT22;10326;53.660;10.200;2024-02-23T04:56:17;8.90;92.60
20337;DHT22;10326;53.660;10.200;2024-02-23T04:58:44;8.90;92.60
20337;DHT22;10326;53.660;10.200;2024-02-23T05:01:11;8.90;92.50
20337;DHT22;10326;53.660;10.200;2024-02-23T05:03:39;8.90;92.50
20337;DHT22;10326;53.660;10.200;2024-02-23T05:06:06;8.90;92.60
20337;DHT22;10326;53.660;10.200;2024-02-23T05:08:33;8.90;92.60
20337;DHT22;10326;53.660;10.200;2024-02-23T05:11:00;8.90;92.60
20337;DHT22;10326;53.660;10.200;2024-02-23T05:13:27;8.90;92.60
20337;DHT22;10326;53.660;10.200;2024-02-23T05:15:55;8.90;92.60
20337;DHT22;10326;53.660;10.200;2024-02-23T05:18:23;8.90;92.60
20337;DHT22;10326;53.660;10.200;2024-02-23T05:20:51;8.90;92.60
20337;DHT22;10326;53.660;10.200;2024-02-23T05:23:18;8.90;92.60
20337;DHT22;10326;53.660;10.200;2024-02-23T05:25:45;8.90;92.50
20337;DHT22;10326;53.660;10.200;2024-02-23T05:28:12;8.90;92.50
20337;DHT22;10326;53.660;10.200;2024-02-23T05:30:39;8.80;92.50
20337;DHT22;10326;53.660;10.200;2024-02-23T05:33:07;8.80;92.50
20337;DHT22;10326;53.660;10.200;2024-02-23T05:35:33;8.90;92.50
20337;DHT22;10326;53.660;10.200;2024-02-23T05:38:02;8.80;92.50
20337;DHT22;10326;53.660;10.200;2024-02-23T05:40:29;8.80;92.50
20337;DHT22;10326;53.660;10.200;2024-02-23T05:42:56;8.80;92.50
20337;DHT22;10326;53.660;10.200;2024-02-23T05:45:23;8.80;92.40
20337;DHT22;10326;53.660;10.200;2024-02-23T05:47:50;8.80;92.40
20337;DHT22;10326;53.660;10.200;2024-02-23T05:50:17;8.80;92.40
20337;DHT22;10326;53.660;10.200;2024-02-23T05:52:44;8.80;92.40
20337;DHT22;10326;53.660;10.200;2024-02-23T05:55:13;8.80;92.40
20337;DHT22;10326;53.660;10.200;2024-02-23T05:57:40;8.80;92.40
20337;DHT22;10326;53.660;10.200;2024-02-23T06:00:08;8.80;92.50
20337;DHT22;10326;53.660;10.200;2024-02-23T06:02:39;8.80;92.40
20337;DHT22;10326;53.660;10.200;2024-02-23T06:05:06;8.80;92.40
20337;DHT22;10326;53.660;10.200;2024-02-23T06:07:34;8.80;92.50
20337;DHT22;10326;53.660;10.200;2024-02-23T06:10:02;8.80;92.40
20337;DHT22;10326;53.660;10.200;2024-02-23T06:12:30;8.80;92.40
20337;DHT22;10326;53.660;10.200;2024-02-23T06:14:57;8.80;92.40
20337;DHT22;10326;53.660;10.200;2024-02-23T06:17:24;8.80;92.40
20337;DHT22;10326;53.660;10.200;2024-02-23T06:19:51;8.80;92.30
20337;DHT22;10326;53.660;10.200;2024-02-23T06:22:19;8.80;92.30
20337;DHT22;10326;53.660;10.200;2024-02-23T06:24:47;8.80;92.30
20337;DHT22;10326;53.660;10.200;2024-02-23T06:27:14;8.80;92.30
20337;DHT22;10326;53.660;10.200;2024-02-23T06:29:42;8.80;92.30
20337;DHT22;10326;53.660;10.200;2024-02-23T06:32:09;8.80;92.20
20337;DHT22;10326;53.660;10.200;2024-02-23T06:34:36;8.80;92.20
20337;DHT22;10326;53.660;10.200;2024-02-23T06:37:03;8.80;92.20
20337;DHT22;10326;53.660;10.200;2024-02-23T06:39:31;8.80;92.20
20337;DHT22;10326;53.660;10.200;2024-02-23T06:41:58;8.80;92.20
20337;DHT22;10326;53.660;10.200;2024-02-23T06:44:26;8.80;92.10
20337;DHT22;10326;53.660;10.200;2024-02-23T06:46:54;8.80;92.10
20337;DHT22;10326;53.660;10.200;2024-02-23T06:49:21;8.80;92.10
20337;DHT22;10326;53.660;10.200;2024-02-23T06:51:48;8.80;92.00
20337;DHT22;10326;53.660;10.200;2024-02-23T06:54:15;8.80;92.10
20337;DHT22;10326;53.660;10.200;2024-02-23T06:56:43;8.80;92.10
20337;DHT22;10326;53.660;10.200;2024-02-23T06:59:11;8.80;92.10
20337;DHT22;10326;53.660;10.200;2024-02-23T07:01:47;8.80;92.00
20337;DHT22;10326;53.660;10.200;2024-02-23T07:04:17;8.80;92.00
20337;DHT22;10326;53.660;10.200;2024-02-23T07:06:44;8.80;92.10
20337;DHT22;10326;53.660;10.200;2024-02-23T07:09:11;8.80;92.10
20337;DHT22;10326;53.660;10.200;2024-02-23T07:11:39;8.80;92.10
20337;DHT22;10326;53.660;10.200;2024-02-23T07:14:09;8.80;92.20
20337;DHT22;10326;53.660;10.200;2024-02-23T07:16:37;8.80;92.20
20337;DHT22;10326;53.660;10.200;2024-02-23T07:19:06;8.80;92.10
20337;DHT22;10326;53.660;10.200;2024-02-23T07:21:34;8.90;92.10
20337;DHT22;10326;53.660;10.200;2024-02-23T07:24:01;8.80;92.10
20337;DHT22;10326;53.660;10.200;2024-02-23T07:26:28;8.80;92.10
20337;DHT22;10326;53.660;10.200;2024-02-23T07:28:55;8.80;92.10
20337;DHT22;10326;53.660;10.200;2024-02-23T07:31:22;8.90;92.10
20337;DHT22;10326;53.660;10.200;2024-02-23T07:33:49;8.80;92.10
20337;DHT22;10326;53.660;10.200;2024-02-23T07:36:16;8.80;92.10
20337;DHT22;10326;53.660;10.200;2024-02-23T07:38:45;8.80;92.10
20337;DHT22;10326;53.660;10.200;2024-02-23T07:41:12;8.90;92.10
20337;DHT22;10326;53.660;10.200;2024-02-23T07:43:39;8.90;92.10
20337;DHT22;10326;53.660;10.200;2024-02-23T07:46:06;8.80;92.10
20337;DHT22;10326;53.660;10.200;2024-02-23T07:48:35;8.90;92.10
20337;DHT22;10326;53.660;10.200;2024-02-23T07:51:02;8.80;92.10
20337;DHT22;10326;53.660;10.200;2024-02-23T07:53:29;8.80;92.10
20337;DHT22;10326;53.660;10.200;2024-02-23T07:55:59;8.90;92.10
20337;DHT22;10326;53.660;10.200;2024-02-23T07:58:28;8.90;92.00
20337;DHT22;10326;53.660;10.200;2024-02-23T08:00:54;8.90;92.00
20337;DHT22;10326;53.660;10.200;2024-02-23T08:03:22;8.90;92.10
20337;DHT22;10326;53.660;10.200;2024-02-23T08:05:49;8.90;92.10
20337;DHT22;10326;53.660;10.200;2024-02-23T08:08:15;8.90;92.10
20337;DHT22;10326;53.660;10.200;2024-02-23T08:10:43;8.90;92.10
20337;DHT22;10326;53.660;10.200;2024-02-23T08:13:11;8.90;92.10
20337;DHT22;10326;53.660;10.200;2024-02-23T08:15:38;8.90;92.10
20337;DHT22;10326;53.660;10.200;2024-02-23T08:18:06;8.90;92.10
20337;DHT22;10326;53.660;10.200;2024-02-23T08:20:32;9.00;92.10
20337;DHT22;10326;53.660;10.200;2024-02-23T08:22:59;9.00;92.10
20337;DHT22;10326;53.660;10.200;2024-02-23T08:25:26;9.00;92.10
20337;DHT22;10326;53.660;10.200;2024-02-23T08:27:54;9.10;92.00
20337;DHT22;10326;53.660;10.200;2024-02-23T08:30:22;9.10;92.00
20337;DHT22;10326;53.660;10.200;2024-02-23T08:32:49;9.10;92.00
20337;DHT22;10326;53.660;10.200;2024-02-23T08:35:16;9.20;92.00
20337;DHT22;10326;53.660;10.200;2024-02-23T08:37:43;9.20;92.00
20337;DHT22;10326;53.660;10.200;2024-02-23T08:40:11;9.20;91.90
20337;DHT22;10326;53.660;10.200;2024-02-23T08:42:38;9.30;91.90
20337;DHT22;10326;53.660;10.200;2024-02-23T08:45:06;9.30;91.90
20337;DHT22;10326;53.660;10.200;2024-02-23T08:47:36;9.30;91.90
20337;DHT22;10326;53.660;10.200;2024-02-23T08:50:04;9.30;91.80
20337;DHT22;10326;53.660;10.200;2024-02-23T08:52:31;9.40;91.90
20337;DHT22;10326;53.660;10.200;2024-02-23T08:54:58;9.40;91.80
20337;DHT22;10326;53.660;10.200;2024-02-23T08:57:27;9.40;91.80
20337;DHT22;10326;53.660;10.200;2024-02-23T08:59:54;9.50;91.70
20337;DHT22;10326;53.660;10.200;2024-02-23T09:02:22;9.50;91.80
20337;DHT22;10326;53.660;10.200;2024-02-23T09:04:51;9.50;91.70
20337;DHT22;10326;53.660;10.200;2024-02-23T09:07:18;9.60;91.60
20337;DHT22;10326;53.660;10.200;2024-02-23T09:09:46;9.60;91.70
20337;DHT22;10326;53.660;10.200;2024-02-23T09:12:14;9.60;91.60
20337;DHT22;10326;53.660;10.200;2024-02-23T09:14:41;9.70;91.60
20337;DHT22;10326;53.660;10.200;2024-02-23T09:17:08;9.70;91.50
20337;DHT22;10326;53.660;10.200;2024-02-23T09:19:36;9.70;91.50
20337;DHT22;10326;53.660;10.200;2024-02-23T09:22:05;9.70;91.40
20337;DHT22;10326;53.660;10.200;2024-02-23T09:24:32;9.70;91.30
20337;DHT22;10326;53.660;10.200;2024-02-23T09:26:58;9.80;91.30
20337;DHT22;10326;53.660;10.200;2024-02-23T09:29:25;9.80;91.30
20337;DHT22;10326;53.660;10.200;2024-02-23T09:31:52;9.80;91.30
20337;DHT22;10326;53.660;10.200;2024-02-23T09:34:19;9.80;91.20
20337;DHT22;10326;53.660;10.200;2024-02-23T09:36:46;9.80;91.10
20337;DHT22;10326;53.660;10.200;2024-02-23T09:39:14;9.80;91.20
20337;DHT22;10326;53.660;10.200;2024-02-23T09:41:42;9.80;91.20
20337;DHT22;10326;53.660;10.200;2024-02-23T09:44:09;9.80;91.20
20337;DHT22;10326;53.660;10.200;2024-02-23T09:46:37;9.80;91.10
20337;DHT22;10326;53.660;10.200;2024-02-23T09:49:04;9.80;91.00
20337;DHT22;10326;53.660;10.200;2024-02-23T09:51:34;9.80;91.00
20337;DHT22;10326;53.660;10.200;2024-02-23T09:54:02;9.80;91.00
20337;DHT22;10326;53.660;10.200;2024-02-23T09:56:30;9.90;91.10
20337;DHT22;10326;53.660;10.200;2024-02-23T09:59:01;9.90;91.00
20337;DHT22;10326;53.660;10.200;2024-02-23T10:01:30;9.90;91.00
20337;DHT22;10326;53.660;10.200;2024-02-23T10:03:59;9.90;91.00
20337;DHT22;10326;53.660;10.200;2024-02-23T10:06:28;10.00;91.10
20337;DHT22;10326;53.660;10.200;2024-02-23T10:08:56;10.00;91.00
20337;DHT22;10326;53.660;10.200;2024-02-23T10:11:24;10.00;90.90
20337;DHT22;10326;53.660;10.200;2024-02-23T10:13:52;10.10;91.00
20337;DHT22;10326;53.660;10.200;2024-02-23T10:16:20;10.10;90.80
20337;DHT22;10326;53.660;10.200;2024-02-23T10:18:47;10.10;90.80
20337;DHT22;10326;53.660;10.200;2024-02-23T10:21:14;10.10;90.80
20337;DHT22;10326;53.660;10.200;2024-02-23T10:23:42;10.10;90.80
20337;DHT22;10326;53.660;10.200;2024-02-23T10:26:10;10.20;90.80
20337;DHT22;10326;53.660;10.200;2024-02-23T10:28:37;10.20;91.00
20337;DHT22;10326;53.660;10.200;2024-02-23T10:31:06;10.20;90.80
20337;DHT22;10326;53.660;10.200;2024-02-23T10:33:34;10.30;90.70
20337;DHT22;10326;53.660;10.200;2024-02-23T10:36:05;10.30;90.70
20337;DHT22;10326;53.660;10.200;2024-02-23T10:38:35;10.30;90.50
20337;DHT22;10326;53.660;10.200;2024-02-23T10:41:33;10.30;90.60
20337;DHT22;10326;53.660;10.200;2024-02-23T10:44:05;10.40;90.50
20337;DHT22;10326;53.660;10.200;2024-02-23T10:47:00;10.40;90.50
20337;DHT22;10326;53.660;10.200;2024-02-23T10:49:28;10.40;90.50
20337;DHT22;10326;53.660;10.200;2024-02-23T10:51:56;10.50;90.60
20337;DHT22;10326;53.660;10.200;2024-02-23T10:54:23;10.50;90.60
20337;DHT22;10326;53.660;10.200;2024-02-23T10:56:52;10.50;90.50
20337;DHT22;10326;53.660;10.200;2024-02-23T10:59:21;10.50;90.50
20337;DHT22;10326;53.660;10.200;2024-02-23T11:01:50;10.50;90.50
20337;DHT22;10326;53.660;10.200;2024-02-23T11:04:21;10.50;90.50
20337;DHT22;10326;53.660;10.200;2024-02-23T11:06:52;10.60;90.40
20337;DHT22;10326;53.660;10.200;2024-02-23T11:09:21;10.60;90.20
20337;DHT22;10326;53.660;10.200;2024-02-23T11:11:56;10.70;90.10
20337;DHT22;10326;53.660;10.200;2024-02-23T11:14:30;10.70;89.80
20337;DHT22;10326;53.660;10.200;2024-02-23T11:16:58;10.70;89.70
20337;DHT22;10326;53.660;10.200;2024-02-23T11:19:34;10.70;90.10
20337;DHT22;10326;53.660;10.200;2024-02-23T11:22:03;10.70;89.90
20337;DHT22;10326;53.660;10.200;2024-02-23T11:24:31;10.80;90.10
20337;DHT22;10326;53.660;10.200;2024-02-23T11:26:58;10.80;90.20
20337;DHT22;10326;53.660;10.200;2024-02-23T11:29:34;10.80;90.20
20337;DHT22;10326;53.660;10.200;2024-02-23T11:32:13;10.80;90.30
20337;DHT22;10326;53.660;10.200;2024-02-23T11:34:42;10.90;89.60
20337;DHT22;10326;53.660;10.200;2024-02-23T11:37:10;10.90;89.80
20337;DHT22;10326;53.660;10.200;2024-02-23T11:39:38;10.90;89.80
20337;DHT22;10326;53.660;10.200;2024-02-23T11:42:06;10.90;89.50
20337;DHT22;10326;53.660;10.200;2024-02-23T11:44:34;10.90;89.30
20337;DHT22;10326;53.660;10.200;2024-02-23T11:47:02;10.90;89.40
20337;DHT22;10326;53.660;10.200;2024-02-23T11:49:30;10.90;89.40
20337;DHT22;10326;53.660;10.200;2024-02-23T11:51:59;10.90;89.60
20337;DHT22;10326;53.660;10.200;2024-02-23T11:54:26;10.90;89.60
20337;DHT22;10326;53.660;10.200;2024-02-23T11:56:53;10.90;89.80
20337;DHT22;10326;53.660;10.200;2024-02-23T11:59:20;11.00;89.50
20337;DHT22;10326;53.660;10.200;2024-02-23T12:01:48;11.00;89.60
20337;DHT22;10326;53.660;10.200;2024-02-23T12:04:15;11.00;89.90
20337;DHT22;10326;53.660;10.200;2024-02-23T12:06:43;11.00;89.80
20337;DHT22;10326;53.660;10.200;2024-02-23T12:09:13;11.10;90.00
20337;DHT22;10326;53.660;10.200;2024-02-23T12:11:40;11.10;89.80
20337;DHT22;10326;53.660;10.200;2024-02-23T12:14:08;11.10;89.50
20337;DHT22;10326;53.660;10.200;2024-02-23T12:16:37;11.20;89.20
20337;DHT22;10326;53.660;10.200;2024-02-23T12:19:04;11.20;89.20
20337;DHT22;10326;53.660;10.200;2024-02-23T12:21:34;11.20;88.90
20337;DHT22;10326;53.660;10.200;2024-02-23T12:24:04;11.20;88.50
20337;DHT22;10326;53.660;10.200;2024-02-23T12:26:34;11.20;88.40
20337;DHT22;10326;53.660;10.200;2024-02-23T12:29:01;11.20;88.40
20337;DHT22;10326;53.660;10.200;2024-02-23T12:31:31;11.20;88.50
20337;DHT22;10326;53.660;10.200;2024-02-23T12:33:58;11.10;88.40
20337;DHT22;10326;53.660;10.200;2024-02-23T12:36:25;11.10;88.30
20337;DHT22;10326;53.660;10.200;2024-02-23T12:38:52;11.10;87.70
20337;DHT22;10326;53.660;10.200;2024-02-23T12:41:18;11.10;87.90
20337;DHT22;10326;53.660;10.200;2024-02-23T12:43:47;11.10;87.80
20337;DHT22;10326;53.660;10.200;2024-02-23T12:46:14;11.10;87.80
20337;DHT22;10326;53.660;10.200;2024-02-23T12:48:43;11.10;87.90
20337;DHT22;10326;53.660;10.200;2024-02-23T12:51:10;11.10;87.50
20337;DHT22;10326;53.660;10.200;2024-02-23T12:53:38;11.10;87.70
20337;DHT22;10326;53.660;10.200;2024-02-23T12:56:07;11.10;87.70
20337;DHT22;10326;53.660;10.200;2024-02-23T12:58:36;11.10;87.30
20337;DHT22;10326;53.660;10.200;2024-02-23T13:01:05;11.10;87.30
20337;DHT22;10326;53.660;10.200;2024-02-23T13:03:33;11.20;87.20
20337;DHT22;10326;53.660;10.200;2024-02-23T13:06:01;11.10;87.30
20337;DHT22;10326;53.660;10.200;2024-02-23T13:08:29;11.10;87.40
20337;DHT22;10326;53.660;10.200;2024-02-23T13:10:57;11.10;87.10
20337;DHT22;10326;53.660;10.200;2024-02-23T13:13:24;11.20;87.30
20337;DHT22;10326;53.660;10.200;2024-02-23T13:15:53;11.20;87.40
20337;DHT22;10326;53.660;10.200;2024-02-23T13:18:22;11.20;87.20
20337;DHT22;10326;53.660;10.200;2024-02-23T13:20:50;11.20;87.20
20337;DHT22;10326;53.660;10.200;2024-02-23T13:23:17;11.20;87.20
20337;DHT22;10326;53.660;10.200;2024-02-23T13:25:44;11.30;87.00
20337;DHT22;10326;53.660;10.200;2024-02-23T13:28:11;11.20;86.70
20337;DHT22;10326;53.660;10.200;2024-02-23T13:30:38;11.20;86.70
20337;DHT22;10326;53.660;10.200;2024-02-23T13:33:06;11.20;86.60
20337;DHT22;10326;53.660;10.200;2024-02-23T13:35:34;11.20;86.70
20337;DHT22;10326;53.660;10.200;2024-02-23T13:38:02;11.30;86.70
20337;DHT22;10326;53.660;10.200;2024-02-23T13:40:29;11.30;86.80
20337;DHT22;10326;53.660;10.200;2024-02-23T13:42:57;11.30;86.70
20337;DHT22;10326;53.660;10.200;2024-02-23T13:45:24;11.30;86.40
20337;DHT22;10326;53.660;10.200;2024-02-23T13:47:58;11.30;86.40
20337;DHT22;10326;53.660;10.200;2024-02-23T13:50:26;11.30;85.80
20337;DHT22;10326;53.660;10.200;2024-02-23T13:52:55;11.30;86.50
20337;DHT22;10326;53.660;10.200;2024-02-23T13:55:22;11.30;86.20
20337;DHT22;10326;53.660;10.200;2024-02-23T13:57:50;11.30;86.40
20337;DHT22;10326;53.660;10.200;2024-02-23T14:00:18;11.30;86.40
20337;DHT22;10326;53.660;10.200;2024-02-23T14:02:46;11.30;86.30
20337;DHT22;10326;53.660;10.200;2024-02-23T14:05:14;11.30;86.40
20337;DHT22;10326;53.660;10.200;2024-02-23T14:07:43;11.30;86.20
20337;DHT22;10326;53.660;10.200;2024-02-23T14:10:11;11.30;85.90
20337;DHT22;10326;53.660;10.200;2024-02-23T14:12:39;11.30;85.80
20337;DHT22;10326;53.660;10.200;2024-02-23T14:15:06;11.30;85.80
20337;DHT22;10326;53.660;10.200;2024-02-23T14:17:34;11.30;85.90
20337;DHT22;10326;53.660;10.200;2024-02-23T14:20:01;11.30;85.90
20337;DHT22;10326;53.660;10.200;2024-02-23T14:22:29;11.30;86.00
20337;DHT22;10326;53.660;10.200;2024-02-23T14:24:56;11.30;86.00
20337;DHT22;10326;53.660;10.200;2024-02-23T14:27:25;11.30;85.90
20337;DHT22;10326;53.660;10.200;2024-02-23T14:29:53;11.30;85.90
20337;DHT22;10326;53.660;10.200;2024-02-23T14:32:20;11.30;86.00
20337;DHT22;10326;53.660;10.200;2024-02-23T14:34:48;11.40;86.70
20337;DHT22;10326;53.660;10.200;2024-02-23T14:37:15;11.40;86.00
20337;DHT22;10326;53.660;10.200;2024-02-23T14:39:42;11.40;86.20
20337;DHT22;10326;53.660;10.200;2024-02-23T14:42:09;11.50;86.60
20337;DHT22;10326;53.660;10.200;2024-02-23T14:44:37;11.50;86.80
20337;DHT22;10326;53.660;10.200;2024-02-23T14:47:04;11.60;86.40
20337;DHT22;10326;53.660;10.200;2024-02-23T14:49:31;11.70;86.80
20337;DHT22;10326;53.660;10.200;2024-02-23T14:51:58;11.80;86.50
20337;DHT22;10326;53.660;10.200;2024-02-23T14:54:25;11.80;86.20
20337;DHT22;10326;53.660;10.200;2024-02-23T14:56:52;11.80;86.30
20337;DHT22;10326;53.660;10.200;2024-02-23T14:59:19;11.90;86.30
20337;DHT22;10326;53.660;10.200;2024-02-23T15:01:47;12.00;86.10
20337;DHT22;10326;53.660;10.200;2024-02-23T15:04:14;12.00;85.90
20337;DHT22;10326;53.660;10.200;2024-02-23T15:06:41;12.00;85.50
20337;DHT22;10326;53.660;10.200;2024-02-23T15:09:08;12.00;85.40
20337;DHT22;10326;53.660;10.200;2024-02-23T15:11:36;12.00;85.50
20337;DHT22;10326;53.660;10.200;2024-02-23T15:14:03;12.00;85.50
20337;DHT22;10326;53.660;10.200;2024-02-23T15:16:30;12.00;85.70
20337;DHT22;10326;53.660;10.200;2024-02-23T15:18:58;12.00;85.60
20337;DHT22;10326;53.660;10.200;2024-02-23T15:21:26;12.00;85.40
20337;DHT22;10326;53.660;10.200;2024-02-23T15:23:53;12.00;85.60
20337;DHT22;10326;53.660;10.200;2024-02-23T15:26:20;11.90;85.50